Time;durP1;ratioP1;P1;durP2;ratioP2;P2;SDS_P1;SDS_P2;PMS_P1;PMS_P2;Temp;Humidity;BMP_temperature;BMP_pressure;BME280_temperature;BME280_humidity;BME280_pressure;Samples;Min_cycle;Max_cycle;Signal;HPM_P1;HPM_P2
2022/08/05 00:01:30;;;;;;;8.57;7.85;;;;;;;;;;4215736;28;20046;-62
2022/08/05 00:03:37;;;;;;;8.63;7.82;;;;;;;;;;4215088;28;20028;-63
2022/08/05 00:05:38;;;;;;;8.00;7.38;;;;;;;;;;4215869;28;20080;-63
2022/08/05 00:07:39;;;;;;;9.07;8.10;;;;;;;;;;4215465;28;20020;-62
2022/08/05 00:09:40;;;;;;;9.00;8.20;;;;;;;;;;4214802;28;20055;-62
2022/08/05 00:11:41;;;;;;;9.00;8.20;;;;;;;;;;4215108;28;20032;-62
2022/08/05 00:13:42;;;;;;;8.77;7.95;;;;;;;;;;4214733;28;20439;-63
2022/08/05 00:15:43;;;;;;;9.18;8.27;;;;;;;;;;4215151;28;20097;-63
2022/08/05 00:17:44;;;;;;;8.27;7.47;;;;;;;;;;4215167;28;20383;-62
2022/08/05 00:19:45;;;;;;;9.02;8.23;;;;;;;;;;4214718;28;20403;-63
2022/08/05 00:21:46;;;;;;;9.05;8.23;;;;;;;;;;4214981;28;20419;-62
2022/08/05 00:23:47;;;;;;;8.52;7.72;;;;;;;;;;4214968;28;20491;-62
2022/08/05 00:25:48;;;;;;;9.40;8.50;;;;;;;;;;4215077;28;20036;-63
2022/08/05 00:27:49;;;;;;;8.70;7.90;;;;;;;;;;4214280;28;20028;-62
2022/08/05 00:29:50;;;;;;;8.82;8.02;;;;;;;;;;4214515;28;20036;-62
2022/08/05 00:31:52;;;;;;;9.43;8.50;;;;;;;;;;4214794;28;20109;-62
2022/08/05 00:34:11;;;;;;;9.27;8.38;;;;;;;;;;4214986;28;20421;-62
2022/08/05 00:36:13;;;;;;;8.70;7.97;;;;;;;;;;4214751;28;20031;-62
2022/08/05 00:38:14;;;;;;;9.05;8.15;;;;;;;;;;4214799;28;20093;-63
2022/08/05 00:40:17;;;;;;;8.82;8.02;;;;;;;;;;4214294;28;20047;-63
2022/08/05 00:42:50;;;;;;;8.75;7.95;;;;;;;;;;4214755;28;20048;-62
2022/08/05 00:44:51;;;;;;;9.27;8.40;;;;;;;;;;4158950;28;20036;-62
2022/08/05 00:46:52;;;;;;;9.32;8.20;;;;;;;;;;4214651;28;20050;-62
2022/08/05 00:48:56;;;;;;;8.73;7.93;;;;;;;;;;4214354;28;20553;-62
2022/08/05 00:50:57;;;;;;;8.47;7.60;;;;;;;;;;4212177;28;20445;-63
2022/08/05 00:52:58;;;;;;;8.85;7.95;;;;;;;;;;4214547;28;20035;-62
2022/08/05 00:54:59;;;;;;;9.10;8.23;;;;;;;;;;4214543;28;20028;-62
2022/08/05 00:57:00;;;;;;;8.32;7.53;;;;;;;;;;4214517;28;20437;-62
2022/08/05 00:59:01;;;;;;;8.38;7.68;;;;;;;;;;4214816;28;20031;-62
2022/08/05 01:01:02;;;;;;;8.48;7.68;;;;;;;;;;4213878;28;20483;-63
2022/08/05 01:03:02;;;;;;;8.57;7.88;;;;;;;;;;4214508;28;20028;-62
2022/08/05 01:05:04;;;;;;;8.52;7.63;;;;;;;;;;4214265;28;20387;-62
2022/08/05 01:07:05;;;;;;;8.32;7.45;;;;;;;;;;4214379;28;20077;-62
2022/08/05 01:09:05;;;;;;;7.47;6.88;;;;;;;;;;4214419;28;20036;-62
2022/08/05 01:11:15;;;;;;;8.50;7.68;;;;;;;;;;4213798;28;20089;-62
2022/08/05 01:13:36;;;;;;;8.20;7.50;;;;;;;;;;4214380;28;20101;-63
2022/08/05 01:15:41;;;;;;;8.15;7.45;;;;;;;;;;4213691;28;20028;-63
2022/08/05 01:17:44;;;;;;;8.15;7.45;;;;;;;;;;4214272;28;20039;-63
2022/08/05 01:19:50;;;;;;;8.27;7.47;;;;;;;;;;4214068;28;20040;-62
2022/08/05 01:21:59;;;;;;;8.63;7.85;;;;;;;;;;4214147;28;20378;-62
2022/08/05 01:24:25;;;;;;;8.10;7.40;;;;;;;;;;4214572;28;20447;-61
2022/08/05 01:26:32;;;;;;;7.82;7.13;;;;;;;;;;4214137;28;20474;-62
2022/08/05 01:28:40;;;;;;;8.30;7.60;;;;;;;;;;4214100;28;20524;-62
2022/08/05 01:31:04;;;;;;;7.35;6.75;;;;;;;;;;4213844;28;20081;-62
2022/08/05 01:33:06;;;;;;;8.25;7.45;;;;;;;;;;4203296;28;20417;-62
2022/08/05 01:35:08;;;;;;;9.45;7.25;;;;;;;;;;4214113;28;20093;-62
2022/08/05 01:37:21;;;;;;;7.55;6.93;;;;;;;;;;4214656;28;20016;-62
2022/08/05 01:39:22;;;;;;;7.97;7.20;;;;;;;;;;4212657;28;20062;-63
2022/08/05 01:41:24;;;;;;;8.65;7.00;;;;;;;;;;4214010;28;20483;-62
2022/08/05 01:43:26;;;;;;;7.65;6.95;;;;;;;;;;4213965;28;20467;-62
2022/08/05 01:45:31;;;;;;;7.70;7.00;;;;;;;;;;4214018;28;20449;-62
2022/08/05 01:47:34;;;;;;;7.72;7.03;;;;;;;;;;4213974;28;20438;-63
2022/08/05 01:49:37;;;;;;;7.18;6.47;;;;;;;;;;4213672;28;20365;-62
2022/08/05 01:51:39;;;;;;;7.53;6.93;;;;;;;;;;4214166;28;20360;-62
2022/08/05 01:53:40;;;;;;;7.90;7.15;;;;;;;;;;4213896;28;20464;-62
2022/08/05 01:55:41;;;;;;;7.68;6.97;;;;;;;;;;4214277;28;20109;-62
2022/08/05 01:57:45;;;;;;;7.28;6.57;;;;;;;;;;4213993;28;20028;-62
2022/08/05 01:59:50;;;;;;;7.55;6.85;;;;;;;;;;4213587;28;20475;-62
2022/08/05 02:01:52;;;;;;;7.88;7.13;;;;;;;;;;4214337;28;20082;-62
2022/08/05 02:03:54;;;;;;;7.80;7.05;;;;;;;;;;4213963;28;20047;-62
2022/08/05 02:05:55;;;;;;;7.15;6.45;;;;;;;;;;4213925;28;20035;-63
2022/08/05 02:07:56;;;;;;;7.90;7.20;;;;;;;;;;4213903;28;20032;-62
2022/08/05 02:10:01;;;;;;;7.10;6.40;;;;;;;;;;4213449;28;20032;-63
2022/08/05 02:12:05;;;;;;;7.05;6.32;;;;;;;;;;4213779;28;20032;-62
2022/08/05 02:14:11;;;;;;;6.90;6.30;;;;;;;;;;4213718;28;20349;-62
2022/08/05 02:16:24;;;;;;;6.93;6.32;;;;;;;;;;4213775;28;20165;-62
2022/08/05 02:18:31;;;;;;;7.28;6.57;;;;;;;;;;4213599;28;20048;-63
2022/08/05 02:20:58;;;;;;;7.38;6.68;;;;;;;;;;4213181;28;20471;-62
2022/08/05 02:23:01;;;;;;;6.80;6.20;;;;;;;;;;4209885;28;20426;-62
2022/08/05 02:25:05;;;;;;;6.90;6.22;;;;;;;;;;4213719;28;20122;-63
2022/08/05 02:27:10;;;;;;;7.32;6.63;;;;;;;;;;4213578;28;20131;-62
2022/08/05 02:29:11;;;;;;;7.47;6.72;;;;;;;;;;4213612;28;20036;-62
2022/08/05 02:31:18;;;;;;;7.25;6.43;;;;;;;;;;4213669;28;20089;-62
2022/08/05 02:33:19;;;;;;;6.30;5.70;;;;;;;;;;4213587;28;20032;-62
2022/08/05 02:35:25;;;;;;;7.22;6.53;;;;;;;;;;4213523;28;20028;-63
2022/08/05 02:37:27;;;;;;;7.10;6.40;;;;;;;;;;4214068;28;20028;-62
2022/08/05 02:39:33;;;;;;;6.68;6.10;;;;;;;;;;4213176;28;20032;-62
2022/08/05 02:41:34;;;;;;;6.97;6.32;;;;;;;;;;4213431;28;20040;-62
2022/08/05 02:43:36;;;;;;;6.07;5.57;;;;;;;;;;4213642;28;20024;-62
2022/08/05 02:45:39;;;;;;;6.45;5.85;;;;;;;;;;4213583;28;20032;-62
2022/08/05 02:47:40;;;;;;;6.68;6.07;;;;;;;;;;4213628;28;20032;-62
2022/08/05 02:49:43;;;;;;;7.10;6.40;;;;;;;;;;4213208;28;20085;-62
2022/08/05 02:51:45;;;;;;;6.85;6.20;;;;;;;;;;4216572;28;20032;-62
2022/08/05 02:53:46;;;;;;;6.20;5.60;;;;;;;;;;4217033;28;20027;-62
2022/08/05 02:55:48;;;;;;;6.20;5.70;;;;;;;;;;4216512;28;20036;-62
2022/08/05 02:57:49;;;;;;;6.53;5.82;;;;;;;;;;4216524;28;20036;-62
2022/08/05 02:59:50;;;;;;;6.65;6.00;;;;;;;;;;4216564;28;20077;-62
2022/08/05 03:01:56;;;;;;;6.32;5.72;;;;;;;;;;4216303;28;20043;-62
2022/08/05 03:04:00;;;;;;;6.40;5.70;;;;;;;;;;4216364;28;20036;-62
2022/08/05 03:06:01;;;;;;;6.07;5.57;;;;;;;;;;4216444;28;20547;-62
2022/08/05 03:08:02;;;;;;;6.13;5.55;;;;;;;;;;4216278;28;20425;-62
2022/08/05 03:10:03;;;;;;;6.32;5.82;;;;;;;;;;4215940;28;20086;-62
2022/08/05 03:12:05;;;;;;;6.57;5.97;;;;;;;;;;4216527;28;20105;-62
2022/08/05 03:14:06;;;;;;;6.32;5.72;;;;;;;;;;4216180;28;20490;-62
2022/08/05 03:16:07;;;;;;;6.53;5.93;;;;;;;;;;4216155;28;20028;-63
2022/08/05 03:18:07;;;;;;;6.30;5.43;;;;;;;;;;4215600;28;20052;-62
2022/08/05 03:20:09;;;;;;;6.45;5.95;;;;;;;;;;4215796;28;20510;-63
2022/08/05 03:22:09;;;;;;;5.97;5.47;;;;;;;;;;4215994;28;20040;-62
2022/08/05 03:24:14;;;;;;;6.13;5.53;;;;;;;;;;4216021;28;20479;-61
2022/08/05 03:26:14;;;;;;;5.78;5.28;;;;;;;;;;4216045;28;20028;-61
2022/08/05 03:28:17;;;;;;;6.22;5.63;;;;;;;;;;4216588;28;20025;-61
2022/08/05 03:30:18;;;;;;;6.20;5.60;;;;;;;;;;4215589;28;20031;-61
2022/08/05 03:32:19;;;;;;;5.80;5.30;;;;;;;;;;4215973;28;20066;-61
2022/08/05 03:34:20;;;;;;;6.03;5.50;;;;;;;;;;4215807;28;20035;-61
2022/08/05 03:36:21;;;;;;;7.25;5.53;;;;;;;;;;4215943;28;20047;-61
2022/08/05 03:38:23;;;;;;;5.60;5.10;;;;;;;;;;4215753;28;20036;-61
2022/08/05 03:40:24;;;;;;;6.28;5.68;;;;;;;;;;4215356;28;20036;-63
2022/08/05 03:42:25;;;;;;;6.82;5.93;;;;;;;;;;4215728;28;20040;-63
2022/08/05 03:44:26;;;;;;;5.70;5.13;;;;;;;;;;4212745;28;20085;-61
2022/08/05 03:46:30;;;;;;;6.28;5.68;;;;;;;;;;4215652;28;20379;-61
2022/08/05 03:48:30;;;;;;;7.28;5.65;;;;;;;;;;4215346;28;20028;-62
2022/08/05 03:50:48;;;;;;;6.53;5.93;;;;;;;;;;4215172;28;20082;-61
2022/08/05 03:53:05;;;;;;;6.32;5.72;;;;;;;;;;4215606;28;20035;-62
2022/08/05 03:55:10;;;;;;;5.95;5.40;;;;;;;;;;4215546;28;20090;-61
2022/08/05 03:57:15;;;;;;;5.65;5.15;;;;;;;;;;4215399;28;20036;-62
2022/08/05 03:59:18;;;;;;;6.28;5.68;;;;;;;;;;4214465;28;20018;-61
2022/08/05 04:01:21;;;;;;;5.93;5.43;;;;;;;;;;4214154;28;20044;-62
2022/08/05 04:03:22;;;;;;;5.50;4.88;;;;;;;;;;4215061;28;20086;-63
2022/08/05 04:05:24;;;;;;;6.63;5.40;;;;;;;;;;4214991;28;20032;-62
2022/08/05 04:07:25;;;;;;;6.13;5.53;;;;;;;;;;4215262;28;20036;-62
2022/08/05 04:09:28;;;;;;;6.40;5.80;;;;;;;;;;4215406;28;20032;-62
2022/08/05 04:11:33;;;;;;;5.38;4.88;;;;;;;;;;4215345;28;20062;-62
2022/08/05 04:13:33;;;;;;;5.45;4.93;;;;;;;;;;4215429;28;20048;-62
2022/08/05 04:15:35;;;;;;;6.72;5.40;;;;;;;;;;4215749;28;20024;-62
2022/08/05 04:17:36;;;;;;;5.53;4.90;;;;;;;;;;4215148;28;20040;-62
2022/08/05 04:19:43;;;;;;;5.63;5.13;;;;;;;;;;4214585;28;20521;-62
2022/08/05 04:21:44;;;;;;;6.00;5.50;;;;;;;;;;4215088;28;20043;-62
2022/08/05 04:23:45;;;;;;;5.57;5.07;;;;;;;;;;4215006;28;20085;-62
2022/08/05 04:25:46;;;;;;;6.32;5.47;;;;;;;;;;4215001;28;20383;-62
2022/08/05 04:27:50;;;;;;;5.50;4.97;;;;;;;;;;4215556;28;20012;-63
2022/08/05 04:29:51;;;;;;;5.60;5.10;;;;;;;;;;4214445;28;20032;-63
2022/08/05 04:31:52;;;;;;;5.97;5.47;;;;;;;;;;4214977;28;20382;-63
2022/08/05 04:33:52;;;;;;;5.28;4.88;;;;;;;;;;4214960;28;20032;-63
2022/08/05 04:35:53;;;;;;;5.38;4.82;;;;;;;;;;4214811;28;20590;-63
2022/08/05 04:37:54;;;;;;;5.30;4.80;;;;;;;;;;4214750;28;20044;-63
2022/08/05 04:39:55;;;;;;;5.32;4.82;;;;;;;;;;4214389;28;20060;-63
2022/08/05 04:41:57;;;;;;;5.38;4.80;;;;;;;;;;4214672;28;20044;-63
2022/08/05 04:43:58;;;;;;;5.10;4.60;;;;;;;;;;4214836;28;20081;-63
2022/08/05 04:45:59;;;;;;;5.15;4.75;;;;;;;;;;4214695;28;20036;-62
2022/08/05 04:48:05;;;;;;;5.20;4.78;;;;;;;;;;4215284;28;20082;-62
2022/08/05 04:50:06;;;;;;;6.93;5.07;;;;;;;;;;4214610;28;20044;-63
2022/08/05 04:52:07;;;;;;;4.68;4.28;;;;;;;;;;4215353;28;20024;-63
2022/08/05 04:54:08;;;;;;;4.57;4.18;;;;;;;;;;4215425;28;20114;-63
2022/08/05 04:56:15;;;;;;;5.03;4.63;;;;;;;;;;4214819;28;20070;-63
2022/08/05 04:58:16;;;;;;;4.75;4.32;;;;;;;;;;4214803;28;20089;-63
2022/08/05 05:00:17;;;;;;;5.45;4.95;;;;;;;;;;4214296;28;20078;-63
2022/08/05 05:02:21;;;;;;;5.25;4.75;;;;;;;;;;4214378;28;20127;-63
2022/08/05 05:04:21;;;;;;;5.30;4.80;;;;;;;;;;4214640;28;20089;-63
2022/08/05 05:06:23;;;;;;;5.43;4.93;;;;;;;;;;4214519;28;20035;-63
2022/08/05 05:08:24;;;;;;;5.43;4.93;;;;;;;;;;4214676;28;20024;-63
2022/08/05 05:10:25;;;;;;;5.43;4.93;;;;;;;;;;4214133;28;20031;-63
2022/08/05 05:12:25;;;;;;;4.82;4.43;;;;;;;;;;4214642;28;20035;-63
2022/08/05 05:14:26;;;;;;;4.85;4.45;;;;;;;;;;4214379;28;20107;-63
2022/08/05 05:16:27;;;;;;;4.90;4.40;;;;;;;;;;4214766;28;20423;-63
2022/08/05 05:18:28;;;;;;;4.90;4.50;;;;;;;;;;4214502;28;20093;-64
2022/08/05 05:20:29;;;;;;;5.18;4.78;;;;;;;;;;4214350;28;20032;-63
2022/08/05 05:22:30;;;;;;;5.05;4.65;;;;;;;;;;4214448;28;20047;-63
2022/08/05 05:24:34;;;;;;;5.10;4.60;;;;;;;;;;4214268;28;20453;-63
2022/08/05 05:26:35;;;;;;;5.07;4.57;;;;;;;;;;4214306;28;20557;-67
2022/08/05 05:28:38;;;;;;;6.00;4.78;;;;;;;;;;4214280;28;20032;-63
2022/08/05 05:30:39;;;;;;;4.82;4.38;;;;;;;;;;4213919;28;20024;-63
2022/08/05 05:32:40;;;;;;;4.97;4.57;;;;;;;;;;4214506;28;20085;-63
2022/08/05 05:34:41;;;;;;;4.95;4.53;;;;;;;;;;4214336;28;20070;-63
2022/08/05 05:36:42;;;;;;;4.60;4.15;;;;;;;;;;4214175;28;20046;-64
2022/08/05 05:38:43;;;;;;;5.13;4.63;;;;;;;;;;4213663;28;20111;-63
2022/08/05 05:40:46;;;;;;;5.45;4.50;;;;;;;;;;4213689;28;20066;-63
2022/08/05 05:42:48;;;;;;;4.68;4.28;;;;;;;;;;4214485;28;20113;-63
2022/08/05 05:44:49;;;;;;;5.00;4.50;;;;;;;;;;4213720;28;20124;-62
2022/08/05 05:46:50;;;;;;;4.30;3.90;;;;;;;;;;4214555;28;20348;-64
2022/08/05 05:48:51;;;;;;;4.47;3.58;;;;;;;;;;4214547;28;20103;-63
2022/08/05 05:50:52;;;;;;;4.57;4.18;;;;;;;;;;4213812;28;20031;-62
2022/08/05 05:52:55;;;;;;;4.65;4.25;;;;;;;;;;4214566;28;20032;-63
2022/08/05 05:54:59;;;;;;;4.72;4.32;;;;;;;;;;4212890;28;20032;-63
2022/08/05 05:57:03;;;;;;;4.22;3.83;;;;;;;;;;4214507;28;20089;-62
2022/08/05 05:59:05;;;;;;;4.88;4.32;;;;;;;;;;4214274;28;20062;-63
2022/08/05 06:01:05;;;;;;;4.50;4.10;;;;;;;;;;4213600;28;20029;-63
2022/08/05 06:03:08;;;;;;;4.43;4.03;;;;;;;;;;4214041;28;20036;-63
2022/08/05 06:05:10;;;;;;;4.25;3.85;;;;;;;;;;4213862;28;20085;-63
2022/08/05 06:07:11;;;;;;;4.50;3.90;;;;;;;;;;4213949;28;20105;-63
2022/08/05 06:09:12;;;;;;;4.97;4.25;;;;;;;;;;4213014;28;20055;-63
2022/08/05 06:11:15;;;;;;;4.53;4.13;;;;;;;;;;4213797;28;20032;-63
2022/08/05 06:13:16;;;;;;;4.35;3.95;;;;;;;;;;4213969;28;20040;-63
2022/08/05 06:15:20;;;;;;;4.10;3.78;;;;;;;;;;4213846;28;20100;-63
2022/08/05 06:17:21;;;;;;;4.50;4.10;;;;;;;;;;4214376;28;20024;-63
2022/08/05 06:19:22;;;;;;;4.68;4.28;;;;;;;;;;4212971;28;20072;-62
2022/08/05 06:21:23;;;;;;;4.80;4.40;;;;;;;;;;4213742;28;20044;-63
2022/08/05 06:23:23;;;;;;;4.05;3.75;;;;;;;;;;4213791;28;20059;-63
2022/08/05 06:25:24;;;;;;;4.40;4.00;;;;;;;;;;4214934;28;20431;-63
2022/08/05 06:27:25;;;;;;;4.30;3.90;;;;;;;;;;4217063;28;20119;-63
2022/08/05 06:29:26;;;;;;;4.30;3.90;;;;;;;;;;4216217;28;20036;-63
2022/08/05 06:31:27;;;;;;;4.97;4.47;;;;;;;;;;4217243;28;20040;-63
2022/08/05 06:33:28;;;;;;;4.53;4.13;;;;;;;;;;4216838;28;20063;-63
2022/08/05 06:35:29;;;;;;;4.53;4.13;;;;;;;;;;4216873;28;20099;-63
2022/08/05 06:37:30;;;;;;;4.45;4.05;;;;;;;;;;4217191;28;20019;-63
2022/08/05 06:39:31;;;;;;;4.38;3.97;;;;;;;;;;4216690;28;20063;-63
2022/08/05 06:41:31;;;;;;;4.20;3.80;;;;;;;;;;4216752;28;20070;-63
2022/08/05 06:43:32;;;;;;;4.03;3.65;;;;;;;;;;4216593;28;20075;-63
2022/08/05 06:45:33;;;;;;;4.15;3.83;;;;;;;;;;4216626;28;20124;-63
2022/08/05 06:47:34;;;;;;;4.05;3.75;;;;;;;;;;4216719;28;20430;-63
2022/08/05 06:49:36;;;;;;;4.05;3.75;;;;;;;;;;4216353;28;20857;-62
2022/08/05 06:51:39;;;;;;;4.30;3.85;;;;;;;;;;4216844;28;20094;-63
2022/08/05 06:53:40;;;;;;;5.53;4.47;;;;;;;;;;4216671;28;20036;-63
2022/08/05 06:55:44;;;;;;;4.00;3.63;;;;;;;;;;4216114;28;20051;-61
2022/08/05 06:57:45;;;;;;;3.97;3.63;;;;;;;;;;4216994;28;20081;-63
2022/08/05 06:59:46;;;;;;;3.63;3.33;;;;;;;;;;4216449;28;20383;-63
2022/08/05 07:01:46;;;;;;;4.00;3.67;;;;;;;;;;4216412;28;20126;-63
2022/08/05 07:03:47;;;;;;;3.53;3.22;;;;;;;;;;4216998;28;20016;-63
2022/08/05 07:05:48;;;;;;;5.10;4.13;;;;;;;;;;4216320;28;20034;-62
2022/08/05 07:07:49;;;;;;;3.72;3.42;;;;;;;;;;4216318;28;20038;-63
2022/08/05 07:09:50;;;;;;;3.75;3.45;;;;;;;;;;4215869;28;20124;-63
2022/08/05 07:11:51;;;;;;;3.58;3.28;;;;;;;;;;4216257;28;20028;-63
2022/08/05 07:18:30;;;;;;;3.80;3.50;;;;;;;;;;4217063;28;20032;-63
2022/08/05 07:20:31;;;;;;;3.85;3.35;;;;;;;;;;4214952;28;20058;-63
2022/08/05 07:22:32;;;;;;;3.50;3.20;;;;;;;;;;4216181;28;20055;-63
2022/08/05 07:24:33;;;;;;;3.72;3.42;;;;;;;;;;4216502;28;20020;-63
2022/08/05 07:26:34;;;;;;;3.60;3.20;;;;;;;;;;4216110;28;20032;-63
2022/08/05 07:28:35;;;;;;;3.60;3.30;;;;;;;;;;4216444;28;20433;-63
2022/08/05 07:30:36;;;;;;;3.20;3.00;;;;;;;;;;4216056;28;20115;-63
2022/08/05 07:32:37;;;;;;;3.50;3.20;;;;;;;;;;4215959;28;20089;-62
2022/08/05 07:34:38;;;;;;;3.60;3.30;;;;;;;;;;4216267;28;20081;-63
2022/08/05 07:36:39;;;;;;;4.07;3.40;;;;;;;;;;4216331;28;20467;-63
2022/08/05 07:38:40;;;;;;;3.63;3.33;;;;;;;;;;4216426;28;20101;-63
2022/08/05 07:40:42;;;;;;;3.90;3.53;;;;;;;;;;4214685;28;20059;-63
2022/08/05 07:42:43;;;;;;;3.35;3.05;;;;;;;;;;4210195;28;20036;-63
2022/08/05 07:44:44;;;;;;;3.65;3.35;;;;;;;;;;4215744;28;20028;-62
2022/08/05 07:46:46;;;;;;;3.50;3.20;;;;;;;;;;4214825;28;20414;-63
2022/08/05 07:48:50;;;;;;;3.80;3.50;;;;;;;;;;4215704;28;20032;-63
2022/08/05 07:50:50;;;;;;;3.60;3.30;;;;;;;;;;4215911;28;20027;-63
2022/08/05 07:52:51;;;;;;;3.38;3.08;;;;;;;;;;4216244;28;20110;-63
2022/08/05 07:54:52;;;;;;;3.80;3.42;;;;;;;;;;4216337;28;20031;-63
2022/08/05 07:56:53;;;;;;;3.78;3.42;;;;;;;;;;4215662;28;20025;-63
2022/08/05 07:58:54;;;;;;;3.67;3.38;;;;;;;;;;4215518;28;20550;-63
2022/08/05 08:00:58;;;;;;;3.78;3.38;;;;;;;;;;4214690;28;20058;-63
2022/08/05 08:02:59;;;;;;;3.97;3.58;;;;;;;;;;4215417;28;20040;-62
2022/08/05 08:05:00;;;;;;;3.80;3.38;;;;;;;;;;4216201;28;20042;-63
2022/08/05 08:07:01;;;;;;;4.50;3.10;;;;;;;;;;4216159;28;20678;-63
2022/08/05 08:09:07;;;;;;;3.42;3.13;;;;;;;;;;4215672;28;20073;-62
2022/08/05 08:11:08;;;;;;;3.80;3.50;;;;;;;;;;4215734;28;20398;-63
2022/08/05 08:13:09;;;;;;;3.20;3.00;;;;;;;;;;4215708;28;20063;-61
2022/08/05 08:15:10;;;;;;;3.00;2.80;;;;;;;;;;4215267;28;20111;-61
2022/08/05 08:17:11;;;;;;;3.08;2.88;;;;;;;;;;4215241;28;20043;-61
2022/08/05 08:19:12;;;;;;;3.42;3.13;;;;;;;;;;4214843;28;20089;-61
2022/08/05 08:21:13;;;;;;;3.67;3.38;;;;;;;;;;4214985;28;20040;-62
2022/08/05 08:23:14;;;;;;;3.50;3.20;;;;;;;;;;4215264;28;20558;-62
2022/08/05 08:25:17;;;;;;;4.13;3.22;;;;;;;;;;4215281;28;20467;-62
2022/08/05 08:27:18;;;;;;;3.35;3.05;;;;;;;;;;4215693;28;20475;-62
2022/08/05 08:29:18;;;;;;;3.45;3.15;;;;;;;;;;4215417;28;20132;-62
2022/08/05 08:31:19;;;;;;;3.38;3.08;;;;;;;;;;4215109;28;20131;-62
2022/08/05 08:33:20;;;;;;;2.92;2.72;;;;;;;;;;4215384;28;20029;-62
2022/08/05 08:35:21;;;;;;;3.63;3.33;;;;;;;;;;4215470;28;20047;-62
2022/08/05 08:37:22;;;;;;;3.33;3.03;;;;;;;;;;4214411;28;20439;-62
2022/08/05 08:39:23;;;;;;;3.47;3.17;;;;;;;;;;4214501;28;20458;-62
2022/08/05 08:41:25;;;;;;;4.22;3.28;;;;;;;;;;4214875;28;20190;-62
2022/08/05 08:43:29;;;;;;;3.50;3.20;;;;;;;;;;4214436;28;20044;-62
2022/08/05 08:45:30;;;;;;;3.15;2.95;;;;;;;;;;4215190;28;20028;-62
2022/08/05 08:47:34;;;;;;;3.80;3.40;;;;;;;;;;4213628;28;20032;-62
2022/08/05 08:49:37;;;;;;;3.47;3.17;;;;;;;;;;4214374;28;20089;-62
2022/08/05 08:51:39;;;;;;;2.83;2.63;;;;;;;;;;4214600;28;20113;-62
2022/08/05 08:53:40;;;;;;;3.33;3.03;;;;;;;;;;4214827;28;20028;-62
2022/08/05 08:55:41;;;;;;;3.35;3.05;;;;;;;;;;4214618;28;20039;-62
2022/08/05 08:57:42;;;;;;;3.05;2.75;;;;;;;;;;4214721;28;20051;-62
2022/08/05 08:59:43;;;;;;;3.00;2.70;;;;;;;;;;4214763;28;20093;-62
2022/08/05 09:01:45;;;;;;;3.03;2.83;;;;;;;;;;4214904;28;20512;-62
2022/08/05 09:03:47;;;;;;;3.47;3.17;;;;;;;;;;4214628;28;20032;-62
2022/08/05 09:05:48;;;;;;;3.05;2.75;;;;;;;;;;4214408;28;20471;-62
2022/08/05 09:07:53;;;;;;;2.90;2.60;;;;;;;;;;4214728;28;20042;-62
2022/08/05 09:09:53;;;;;;;3.42;3.05;;;;;;;;;;4214106;28;20032;-63
2022/08/05 09:11:54;;;;;;;3.30;3.00;;;;;;;;;;4214692;28;20126;-62
2022/08/05 09:13:59;;;;;;;3.55;2.72;;;;;;;;;;4214372;28;20053;-62
2022/08/05 09:16:01;;;;;;;3.05;2.75;;;;;;;;;;4213892;28;20040;-62
2022/08/05 09:18:01;;;;;;;2.92;2.70;;;;;;;;;;4214422;28;20422;-62
2022/08/05 09:20:03;;;;;;;4.40;2.90;;;;;;;;;;4213636;28;20044;-62
2022/08/05 09:22:04;;;;;;;2.88;2.67;;;;;;;;;;4214113;28;20553;-62
2022/08/05 09:24:07;;;;;;;3.30;2.88;;;;;;;;;;4214382;28;20032;-62
2022/08/05 09:26:10;;;;;;;2.72;2.53;;;;;;;;;;4214242;28;20039;-62
2022/08/05 09:28:13;;;;;;;3.05;2.85;;;;;;;;;;4214024;28;20040;-62
2022/08/05 09:30:15;;;;;;;3.40;3.10;;;;;;;;;;4213853;28;20471;-62
2022/08/05 09:32:18;;;;;;;3.13;2.85;;;;;;;;;;4214062;28;20024;-62
2022/08/05 09:34:18;;;;;;;2.88;2.67;;;;;;;;;;4214119;28;20036;-62
2022/08/05 09:36:19;;;;;;;2.90;2.70;;;;;;;;;;4214486;28;20051;-62
2022/08/05 09:38:20;;;;;;;3.22;2.92;;;;;;;;;;4214059;28;20149;-62
2022/08/05 09:40:28;;;;;;;4.07;3.20;;;;;;;;;;4213749;28;20218;-62
2022/08/05 09:42:37;;;;;;;2.85;2.65;;;;;;;;;;4213945;28;20044;-62
2022/08/05 09:44:39;;;;;;;3.08;2.85;;;;;;;;;;4214057;28;20536;-62
2022/08/05 09:46:40;;;;;;;2.90;2.67;;;;;;;;;;4214113;28;20156;-62
2022/08/05 09:48:41;;;;;;;2.97;2.75;;;;;;;;;;4214164;28;20063;-62
2022/08/05 09:50:50;;;;;;;2.95;2.75;;;;;;;;;;4214144;28;20032;-62
2022/08/05 09:52:56;;;;;;;3.08;2.78;;;;;;;;;;4212093;28;20036;-62
2022/08/05 09:55:01;;;;;;;3.17;2.88;;;;;;;;;;4213858;28;20081;-62
2022/08/05 09:57:02;;;;;;;3.20;3.00;;;;;;;;;;4213777;28;20032;-62
2022/08/05 09:59:05;;;;;;;2.90;2.70;;;;;;;;;;4213947;28;20042;-62
2022/08/05 10:01:07;;;;;;;2.83;2.60;;;;;;;;;;4215846;28;20532;-62
2022/08/05 10:03:09;;;;;;;3.45;2.83;;;;;;;;;;4217320;28;20040;-62
2022/08/05 10:05:30;;;;;;;3.00;2.70;;;;;;;;;;4217300;28;20077;-63
2022/08/05 10:07:51;;;;;;;3.10;2.80;;;;;;;;;;4217328;28;20086;-62
2022/08/05 10:09:55;;;;;;;3.60;3.03;;;;;;;;;;4216887;28;20085;-62
2022/08/05 10:12:09;;;;;;;2.67;2.47;;;;;;;;;;4217134;28;20031;-62
2022/08/05 10:14:39;;;;;;;2.70;2.50;;;;;;;;;;4217010;28;20031;-62
2022/08/05 10:16:40;;;;;;;4.07;2.75;;;;;;;;;;4149267;28;20092;-62
2022/08/05 10:18:41;;;;;;;3.08;2.78;;;;;;;;;;4149604;28;20057;-62
2022/08/05 10:20:46;;;;;;;2.80;2.60;;;;;;;;;;4171447;28;20113;-62
2022/08/05 10:22:47;;;;;;;2.85;2.53;;;;;;;;;;4216905;28;20044;-62
2022/08/05 10:24:49;;;;;;;2.67;2.47;;;;;;;;;;4217485;28;20025;-62
2022/08/05 10:26:53;;;;;;;2.83;2.63;;;;;;;;;;4203979;28;20365;-62
2022/08/05 10:28:54;;;;;;;2.88;2.65;;;;;;;;;;4215774;28;20310;-63
2022/08/05 10:30:56;;;;;;;2.53;2.33;;;;;;;;;;4216434;28;20046;-62
2022/08/05 10:32:58;;;;;;;2.42;2.22;;;;;;;;;;4217231;28;20473;-62
2022/08/05 10:34:59;;;;;;;2.60;2.40;;;;;;;;;;4216954;28;20040;-62
2022/08/05 10:37:01;;;;;;;2.90;2.70;;;;;;;;;;4216828;28;20028;-62
2022/08/05 10:39:05;;;;;;;2.90;2.60;;;;;;;;;;4216725;28;20040;-62
2022/08/05 10:41:11;;;;;;;2.90;2.60;;;;;;;;;;4216567;28;20062;-62
2022/08/05 10:43:34;;;;;;;4.88;2.53;;;;;;;;;;4216718;28;20093;-62
2022/08/05 10:45:35;;;;;;;2.58;2.38;;;;;;;;;;4216594;28;20532;-63
2022/08/05 10:47:43;;;;;;;2.20;2.08;;;;;;;;;;4216602;28;20032;-62
2022/08/05 10:49:59;;;;;;;2.50;2.30;;;;;;;;;;4215817;28;20032;-62
2022/08/05 10:52:01;;;;;;;2.70;2.50;;;;;;;;;;4216648;28;20036;-62
2022/08/05 10:54:02;;;;;;;2.70;2.50;;;;;;;;;;4216442;28;20360;-62
2022/08/05 10:56:06;;;;;;;2.88;2.67;;;;;;;;;;4216505;28;20039;-62
2022/08/05 10:58:08;;;;;;;2.33;2.13;;;;;;;;;;4216507;28;20164;-62
2022/08/05 11:00:13;;;;;;;2.60;2.40;;;;;;;;;;4216040;28;20036;-62
2022/08/05 11:02:14;;;;;;;2.38;2.17;;;;;;;;;;4216465;28;20036;-63
2022/08/05 11:04:16;;;;;;;3.65;2.40;;;;;;;;;;4216213;28;20085;-62
2022/08/05 11:06:17;;;;;;;2.88;2.67;;;;;;;;;;4216273;28;20467;-62
2022/08/05 11:08:18;;;;;;;3.13;2.55;;;;;;;;;;4216467;28;20063;-63
2022/08/05 11:10:22;;;;;;;2.75;2.55;;;;;;;;;;4215874;28;20035;-62
2022/08/05 11:12:23;;;;;;;2.83;2.53;;;;;;;;;;4215884;28;20426;-62
2022/08/05 11:14:28;;;;;;;2.88;2.60;;;;;;;;;;4216713;28;20036;-62
2022/08/05 11:16:29;;;;;;;2.78;2.45;;;;;;;;;;4216213;28;20089;-62
2022/08/05 11:18:33;;;;;;;2.67;2.40;;;;;;;;;;4216055;28;20045;-62
2022/08/05 11:20:47;;;;;;;2.58;2.38;;;;;;;;;;4215050;28;20094;-62
2022/08/05 11:22:49;;;;;;;2.50;2.30;;;;;;;;;;4214041;28;20055;-62
2022/08/05 11:25:10;;;;;;;2.78;2.50;;;;;;;;;;4215499;28;20039;-62
2022/08/05 11:27:30;;;;;;;2.50;2.30;;;;;;;;;;4214917;28;20425;-62
2022/08/05 11:29:40;;;;;;;2.92;2.53;;;;;;;;;;4214617;28;20093;-62
2022/08/05 11:31:42;;;;;;;2.95;2.60;;;;;;;;;;4215130;28;20035;-62
2022/08/05 11:33:50;;;;;;;3.15;2.63;;;;;;;;;;4214963;28;20032;-62
2022/08/05 11:35:55;;;;;;;2.65;2.45;;;;;;;;;;4215005;28;20438;-62
2022/08/05 11:37:55;;;;;;;;;;;;;;;;;;4215245;28;20078;-62
2022/08/05 11:39:56;;;;;;;2.40;2.20;;;;;;;;;;4214803;28;19946;-62
2022/08/05 11:42:00;;;;;;;2.72;2.53;;;;;;;;;;4214891;28;20164;-63
2022/08/05 11:44:03;;;;;;;4.05;2.47;;;;;;;;;;4214910;28;20117;-63
2022/08/05 11:46:07;;;;;;;2.70;2.50;;;;;;;;;;4214769;28;20028;-63
2022/08/05 11:48:08;;;;;;;2.77;2.57;;;;;;;;;;4214403;28;20028;-62
2022/08/05 11:50:09;;;;;;;2.63;2.42;;;;;;;;;;4214398;28;20032;-62
2022/08/05 11:52:10;;;;;;;2.47;2.28;;;;;;;;;;4214877;28;20035;-63
2022/08/05 11:54:12;;;;;;;2.47;2.28;;;;;;;;;;4214865;28;20036;-62
2022/08/05 11:56:13;;;;;;;2.42;2.22;;;;;;;;;;4214671;28;20089;-62
2022/08/05 11:58:32;;;;;;;2.50;2.30;;;;;;;;;;4214993;28;20375;-62
2022/08/05 12:00:36;;;;;;;2.70;2.30;;;;;;;;;;4213584;28;20181;-62
2022/08/05 12:02:37;;;;;;;2.20;2.00;;;;;;;;;;4214546;28;20117;-62
2022/08/05 12:04:42;;;;;;;2.42;2.13;;;;;;;;;;4213715;28;20031;-62
2022/08/05 12:06:42;;;;;;;2.80;2.17;;;;;;;;;;4214496;28;20089;-62
2022/08/05 12:08:48;;;;;;;2.58;2.38;;;;;;;;;;4214358;28;20053;-62
2022/08/05 12:10:50;;;;;;;2.40;2.15;;;;;;;;;;4214191;28;20035;-62
2022/08/05 12:12:51;;;;;;;2.60;2.40;;;;;;;;;;4215096;28;20016;-62
2022/08/05 12:14:52;;;;;;;2.60;2.15;;;;;;;;;;4214422;28;20032;-62
2022/08/05 12:16:53;;;;;;;2.53;2.33;;;;;;;;;;4214543;28;20042;-62
2022/08/05 12:18:54;;;;;;;2.30;2.10;;;;;;;;;;4214836;28;20023;-62
2022/08/05 12:20:55;;;;;;;2.50;2.30;;;;;;;;;;4149892;28;1849059;-62
2022/08/05 12:23:16;;;;;;;2.50;2.30;;;;;;;;;;4214456;28;20058;-62